createdAt,value
2018-07-19T00:00:23.280Z,99.90
2018-07-19T00:02:54.003Z,99.90
2018-07-19T00:05:24.738Z,99.90
2018-07-19T00:07:55.489Z,99.90
2018-07-19T00:10:26.161Z,99.90
2018-07-19T00:12:56.839Z,99.90
2018-07-19T00:17:57.757Z,99.90
2018-07-19T00:20:28.807Z,99.90
2018-07-19T00:22:59.472Z,99.90
2018-07-19T00:25:30.244Z,99.90
2018-07-19T00:28:00.908Z,99.90
2018-07-19T00:30:31.584Z,99.90
2018-07-19T00:33:02.275Z,99.90
2018-07-19T00:35:33.007Z,99.90
2018-07-19T00:38:03.723Z,99.90
2018-07-19T00:40:34.415Z,99.90
2018-07-19T00:43:05.336Z,99.90
2018-07-19T00:45:36.263Z,99.90
2018-07-19T00:48:07.047Z,99.90
2018-07-19T00:50:37.768Z,99.90
2018-07-19T00:53:08.447Z,99.90
2018-07-19T00:58:09.724Z,99.90
2018-07-19T01:00:40.406Z,99.90
2018-07-19T01:03:11.080Z,99.90
2018-07-19T01:05:41.799Z,99.90
2018-07-19T01:08:12.504Z,99.90
2018-07-19T01:10:43.230Z,99.90
2018-07-19T01:13:13.903Z,99.90
2018-07-19T01:15:44.717Z,99.90
2018-07-19T01:18:15.478Z,99.90
2018-07-19T01:20:46.222Z,99.90
2018-07-19T01:23:16.934Z,99.90
2018-07-19T01:25:47.696Z,99.90
2018-07-19T01:28:18.425Z,99.90
2018-07-19T01:30:49.192Z,99.90
2018-07-19T01:33:19.896Z,99.90
2018-07-19T01:35:50.624Z,99.90
2018-07-19T01:38:21.299Z,99.90
2018-07-19T01:40:52.009Z,99.90
2018-07-19T01:45:52.988Z,99.90
2018-07-19T01:48:23.735Z,99.90
2018-07-19T01:50:54.425Z,99.90
2018-07-19T01:53:25.126Z,99.90
2018-07-19T01:55:55.803Z,99.90
2018-07-19T01:58:26.583Z,99.90
2018-07-19T02:00:57.346Z,99.90
2018-07-19T02:03:28.395Z,99.90
2018-07-19T02:05:59.090Z,99.90
2018-07-19T02:08:29.778Z,99.90
2018-07-19T02:11:00.521Z,99.90
2018-07-19T02:13:31.236Z,99.90
2018-07-19T02:18:32.060Z,99.90
2018-07-19T02:21:02.784Z,99.90
2018-07-19T02:23:33.561Z,99.90
2018-07-19T02:26:04.258Z,99.90
2018-07-19T02:28:35.132Z,99.90
2018-07-19T02:31:05.829Z,99.90
2018-07-19T02:33:37.211Z,99.90
2018-07-19T02:36:08.017Z,99.90
2018-07-19T02:38:38.680Z,99.90
2018-07-19T02:41:09.900Z,99.90
2018-07-19T02:43:40.635Z,99.90
2018-07-19T02:46:11.395Z,99.90
2018-07-19T02:48:42.051Z,99.90
2018-07-19T02:51:12.689Z,99.90
2018-07-19T02:53:43.398Z,99.90
2018-07-19T02:58:44.316Z,99.90
2018-07-19T03:01:15.007Z,99.90
2018-07-19T03:03:45.689Z,99.90
2018-07-19T03:06:16.371Z,99.90
2018-07-19T03:08:47.093Z,99.90
2018-07-19T03:11:17.798Z,99.90
2018-07-19T03:13:48.608Z,99.90
2018-07-19T03:16:19.632Z,99.90
2018-07-19T03:18:50.342Z,99.90
2018-07-19T03:21:21.032Z,99.90
2018-07-19T03:26:21.829Z,99.90
2018-07-19T03:28:52.526Z,99.90
2018-07-19T03:31:23.208Z,99.90
2018-07-19T03:33:53.947Z,99.90
2018-07-19T03:36:24.661Z,99.90
2018-07-19T03:38:55.355Z,99.90
2018-07-19T03:41:26.160Z,99.90
2018-07-19T03:43:56.952Z,99.90
2018-07-19T03:46:27.604Z,99.90
2018-07-19T03:48:58.344Z,99.90
2018-07-19T03:51:29.115Z,99.90
2018-07-19T03:53:59.844Z,99.90
2018-07-19T03:56:30.509Z,99.90
2018-07-19T03:59:01.263Z,99.90
2018-07-19T04:01:31.988Z,99.90
2018-07-19T04:04:02.674Z,99.90
2018-07-19T04:06:33.393Z,99.90
2018-07-19T04:09:04.257Z,99.90
2018-07-19T04:11:35.080Z,99.90
2018-07-19T04:14:06.436Z,99.90
2018-07-19T04:16:37.124Z,99.90
2018-07-19T04:19:08.001Z,99.90
2018-07-19T04:21:38.736Z,99.90
2018-07-19T04:24:09.480Z,99.90
2018-07-19T04:26:40.163Z,99.90
2018-07-19T04:29:10.843Z,99.90
2018-07-19T04:31:41.578Z,99.90
2018-07-19T04:36:42.370Z,99.90
2018-07-19T04:39:13.020Z,99.90
2018-07-19T04:41:43.735Z,99.90
2018-07-19T04:44:14.504Z,99.90
2018-07-19T04:46:45.214Z,99.90
2018-07-19T04:49:16.267Z,99.90
2018-07-19T04:51:46.968Z,99.90
2018-07-19T04:54:17.639Z,99.90
2018-07-19T04:56:48.372Z,99.90
2018-07-19T04:59:19.148Z,99.90
2018-07-19T05:01:49.899Z,99.90
2018-07-19T05:04:20.704Z,99.90
2018-07-19T05:06:51.411Z,99.90
2018-07-19T05:09:22.127Z,99.90
2018-07-19T05:11:52.883Z,99.90
2018-07-19T05:14:23.632Z,99.90
2018-07-19T05:16:54.363Z,99.90
2018-07-19T05:19:25.084Z,99.90
2018-07-19T05:21:55.784Z,99.90
2018-07-19T05:24:26.491Z,99.90
2018-07-19T05:26:57.181Z,99.90
2018-07-19T05:29:27.915Z,99.90
2018-07-19T05:31:58.608Z,99.90
2018-07-19T05:34:29.992Z,99.90
2018-07-19T05:37:00.986Z,99.90
2018-07-19T05:39:31.795Z,99.90
2018-07-19T05:42:02.636Z,99.90
2018-07-19T05:44:33.351Z,99.90
2018-07-19T05:47:04.130Z,99.90
2018-07-19T05:49:34.809Z,99.90
2018-07-19T05:52:05.658Z,99.90
2018-07-19T05:54:36.354Z,99.90
2018-07-19T05:57:07.230Z,99.90
2018-07-19T05:59:37.925Z,99.90
2018-07-19T06:02:08.670Z,99.90
2018-07-19T06:04:39.338Z,99.90
2018-07-19T06:07:10.083Z,99.90
2018-07-19T06:09:40.842Z,99.90
2018-07-19T06:12:11.597Z,99.90
2018-07-19T06:14:42.571Z,99.90
2018-07-19T06:17:13.938Z,99.90
2018-07-19T06:19:44.620Z,99.90
2018-07-19T06:24:45.428Z,99.90
2018-07-19T06:27:17.092Z,99.90
2018-07-19T06:29:48.540Z,99.90
2018-07-19T06:34:50.465Z,99.90
2018-07-19T06:37:21.821Z,99.90
2018-07-19T06:39:53.268Z,99.90
2018-07-19T06:42:24.864Z,99.90
2018-07-19T06:44:56.039Z,99.90
2018-07-19T06:47:27.199Z,99.90
2018-07-19T06:49:58.608Z,99.90
2018-07-19T06:52:29.330Z,99.90
2018-07-19T06:55:00.094Z,99.90
2018-07-19T06:57:30.820Z,99.90
2018-07-19T07:00:01.508Z,99.90
2018-07-19T07:02:32.327Z,99.90
2018-07-19T07:05:03.106Z,99.90
2018-07-19T07:07:33.796Z,99.90
2018-07-19T07:10:04.597Z,99.90
2018-07-19T07:12:36.028Z,99.90
2018-07-19T07:15:08.709Z,99.90
2018-07-19T07:17:39.351Z,99.90
2018-07-19T07:20:10.081Z,99.90
2018-07-19T07:22:40.787Z,99.90
2018-07-19T07:25:11.494Z,99.90
2018-07-19T07:27:42.229Z,99.90
2018-07-19T07:30:12.986Z,99.90
2018-07-19T07:32:43.748Z,99.90
2018-07-19T07:35:14.475Z,99.90
2018-07-19T07:37:45.130Z,99.90
2018-07-19T07:40:15.860Z,99.90
2018-07-19T07:45:16.862Z,99.90
2018-07-19T07:47:47.553Z,99.90
2018-07-19T07:50:18.235Z,99.90
2018-07-19T07:55:19.083Z,99.90
2018-07-19T07:57:49.885Z,99.90
2018-07-19T08:00:20.626Z,99.90
2018-07-19T08:02:51.469Z,99.90
2018-07-19T08:05:22.474Z,99.90
2018-07-19T08:07:53.229Z,99.90
2018-07-19T08:12:54.146Z,99.90
2018-07-19T08:15:24.936Z,99.90
2018-07-19T08:17:55.635Z,99.90
2018-07-19T08:20:26.371Z,99.90
2018-07-19T08:22:57.183Z,99.90
2018-07-19T08:25:27.944Z,99.90
2018-07-19T08:27:58.625Z,99.90
2018-07-19T08:30:29.328Z,99.90
2018-07-19T08:33:00.023Z,99.90
2018-07-19T08:35:30.693Z,99.90
2018-07-19T08:38:02.413Z,99.90
2018-07-19T08:40:33.562Z,99.90
2018-07-19T08:43:10.726Z,99.90
2018-07-19T08:45:41.524Z,99.90
2018-07-19T08:48:12.202Z,99.90
2018-07-19T08:50:42.887Z,99.90
2018-07-19T08:53:13.606Z,99.90
2018-07-19T08:55:44.244Z,99.90
2018-07-19T08:58:14.940Z,99.90
2018-07-19T09:00:45.627Z,99.90
2018-07-19T09:03:16.400Z,99.90
2018-07-19T09:05:47.588Z,99.90
2018-07-19T09:08:24.637Z,99.90
2018-07-19T09:10:55.270Z,99.90
2018-07-19T09:13:26.539Z,99.90
2018-07-19T09:17:00.036Z,99.90
2018-07-19T09:19:30.902Z,99.90
2018-07-19T09:24:34.742Z,99.90
2018-07-19T09:27:05.674Z,99.90
2018-07-19T09:29:36.371Z,99.90
2018-07-19T09:32:07.131Z,99.90
2018-07-19T09:34:37.808Z,99.90
2018-07-19T09:37:08.505Z,99.90
2018-07-19T09:39:39.189Z,99.90
2018-07-19T09:42:09.951Z,99.90
2018-07-19T09:44:40.662Z,99.90
2018-07-19T09:47:11.484Z,99.90
2018-07-19T09:49:42.143Z,99.90
2018-07-19T09:52:12.851Z,99.90
2018-07-19T09:54:58.476Z,99.90
2018-07-19T09:57:30.313Z,99.90
2018-07-19T10:00:00.996Z,99.90
2018-07-19T10:02:31.662Z,99.90
2018-07-19T10:05:02.379Z,99.90
2018-07-19T10:07:33.053Z,99.90
2018-07-19T10:10:03.872Z,99.90
2018-07-19T10:12:34.472Z,99.90
2018-07-19T10:15:05.789Z,99.90
2018-07-19T10:17:36.498Z,99.90
2018-07-19T10:20:07.377Z,99.90
2018-07-19T10:22:38.272Z,99.90
2018-07-19T10:25:09.272Z,99.90
2018-07-19T10:27:40.096Z,99.90
2018-07-19T10:30:11.029Z,99.90
2018-07-19T10:32:42.304Z,99.90
2018-07-19T10:35:12.923Z,99.90
2018-07-19T10:40:13.726Z,99.90
2018-07-19T10:42:44.457Z,99.90
2018-07-19T10:45:15.159Z,99.90
2018-07-19T10:47:45.848Z,99.40
2018-07-19T10:50:16.547Z,97.20
2018-07-19T10:52:47.180Z,94.00
2018-07-19T10:55:17.886Z,92.50
2018-07-19T10:57:48.763Z,93.30
2018-07-19T11:00:19.690Z,92.60
2018-07-19T11:02:50.364Z,94.00
2018-07-19T11:05:21.074Z,94.50
2018-07-19T11:07:52.423Z,95.60
2018-07-19T11:10:23.164Z,95.50
2018-07-19T11:12:54.309Z,95.90
2018-07-19T11:15:24.976Z,96.90
2018-07-19T11:17:56.782Z,97.60
2018-07-19T11:20:27.994Z,94.20
2018-07-19T11:22:59.229Z,96.50
2018-07-19T11:25:30.371Z,97.50
2018-07-19T11:28:01.620Z,97.40
2018-07-19T11:30:33.015Z,97.70
2018-07-19T11:33:04.389Z,96.70
2018-07-19T11:35:35.765Z,98.40
2018-07-19T11:38:06.986Z,96.40
2018-07-19T11:40:39.356Z,96.60
2018-07-19T11:43:10.536Z,98.10
2018-07-19T11:45:41.927Z,98.70
2018-07-19T11:48:13.299Z,97.30
2018-07-19T11:50:44.953Z,97.50
2018-07-19T11:53:16.084Z,94.10
2018-07-19T11:55:47.450Z,93.50
2018-07-19T11:58:18.676Z,90.90
2018-07-19T12:00:50.186Z,91.40
2018-07-19T12:03:21.623Z,92.00
2018-07-19T12:05:53.159Z,93.30
2018-07-19T12:08:24.394Z,93.10
2018-07-19T12:10:55.779Z,92.20
2018-07-19T12:13:27.311Z,91.60
2018-07-19T12:15:58.589Z,92.10
2018-07-19T12:18:29.731Z,92.00
2018-07-19T12:21:01.127Z,90.10
2018-07-19T12:23:32.607Z,88.60
2018-07-19T12:26:03.267Z,86.90
2018-07-19T12:28:33.895Z,82.80
2018-07-19T12:31:04.590Z,78.00
2018-07-19T12:33:35.908Z,76.10
2018-07-19T12:36:08.459Z,76.70
2018-07-19T12:38:39.942Z,72.60
2018-07-19T12:41:11.511Z,70.20
2018-07-19T12:43:42.913Z,72.30
2018-07-19T12:46:14.209Z,74.50
2018-07-19T12:48:45.263Z,78.10
2018-07-19T12:51:15.934Z,78.80
2018-07-19T12:53:46.723Z,74.60
2018-07-19T12:58:47.576Z,82.00
2018-07-19T13:01:19.259Z,85.40
2018-07-19T13:03:50.856Z,84.00
2018-07-19T13:06:22.257Z,79.20
2018-07-19T13:08:54.080Z,82.60
2018-07-19T13:11:25.368Z,83.00
2018-07-19T13:16:28.410Z,80.00
2018-07-19T13:18:59.724Z,78.50
2018-07-19T13:21:31.611Z,80.70
2018-07-19T13:24:02.721Z,71.60
2018-07-19T13:26:35.356Z,76.00
2018-07-19T13:29:06.544Z,77.60
2018-07-19T13:31:37.935Z,76.30
2018-07-19T13:36:40.276Z,74.60
2018-07-19T13:39:11.879Z,72.60
2018-07-19T13:41:43.205Z,73.00
2018-07-19T13:44:14.585Z,73.70
2018-07-19T13:46:46.207Z,71.10
2018-07-19T13:49:17.445Z,70.10
2018-07-19T13:51:49.516Z,69.40
2018-07-19T13:54:34.743Z,70.40
2018-07-19T13:57:05.993Z,69.50
2018-07-19T13:59:37.535Z,65.70
2018-07-19T14:02:08.755Z,65.30
2018-07-19T14:04:39.911Z,63.70
2018-07-19T14:07:11.264Z,65.50
2018-07-19T14:09:42.904Z,64.30
2018-07-19T14:12:14.084Z,65.90
2018-07-19T14:14:45.379Z,60.60
2018-07-19T14:17:16.849Z,63.50
2018-07-19T14:22:20.815Z,62.70
2018-07-19T14:24:52.105Z,71.10
2018-07-19T14:27:23.142Z,71.00
2018-07-19T14:29:54.504Z,72.50
2018-07-19T14:32:26.192Z,67.50
2018-07-19T14:34:57.762Z,61.40
2018-07-19T14:37:29.086Z,64.10
2018-07-19T14:40:00.502Z,65.50
2018-07-19T14:42:31.754Z,72.00
2018-07-19T14:45:02.861Z,74.20
2018-07-19T14:47:34.527Z,69.70
2018-07-19T14:50:05.858Z,70.00
2018-07-19T14:52:37.190Z,70.70
2018-07-19T14:55:08.808Z,71.50
2018-07-19T14:57:40.153Z,69.10
2018-07-19T15:00:12.004Z,74.10
2018-07-19T15:02:43.324Z,75.40
2018-07-19T15:05:14.364Z,71.10
2018-07-19T15:07:45.559Z,75.40
2018-07-19T15:10:16.734Z,74.90
2018-07-19T15:12:48.083Z,76.40
2018-07-19T15:15:19.369Z,74.50
2018-07-19T15:17:50.679Z,65.60
2018-07-19T15:20:21.659Z,70.50
2018-07-19T15:22:53.071Z,70.80
2018-07-19T15:25:24.540Z,72.00
2018-07-19T15:27:55.835Z,70.80
2018-07-19T15:30:27.075Z,70.00
2018-07-19T15:32:58.469Z,70.70
2018-07-19T15:35:29.626Z,69.60
2018-07-19T15:38:00.997Z,69.40
2018-07-19T15:40:32.016Z,65.10
2018-07-19T15:43:03.225Z,69.20
2018-07-19T15:45:34.635Z,68.30
2018-07-19T15:48:05.967Z,67.90
2018-07-19T15:50:37.164Z,63.90
2018-07-19T15:53:08.536Z,66.80
2018-07-19T15:55:39.545Z,63.80
2018-07-19T15:58:10.919Z,64.40
2018-07-19T16:00:42.347Z,63.60
2018-07-19T16:03:13.690Z,67.00
2018-07-19T16:05:44.728Z,66.30
2018-07-19T16:08:16.068Z,65.50
2018-07-19T16:10:47.282Z,64.70
2018-07-19T16:13:18.474Z,66.70
2018-07-19T16:15:49.687Z,64.70
2018-07-19T16:18:21.027Z,67.40
2018-07-19T16:20:52.248Z,69.10
2018-07-19T16:23:23.640Z,67.00
2018-07-19T16:25:54.877Z,67.50
2018-07-19T16:28:26.693Z,65.30
2018-07-19T16:30:58.152Z,67.00
2018-07-19T16:33:29.378Z,62.90
2018-07-19T16:36:01.012Z,63.50
2018-07-19T16:38:32.401Z,64.80
2018-07-19T16:41:03.758Z,64.60
2018-07-19T16:43:34.942Z,65.60
2018-07-19T16:46:06.320Z,65.60
2018-07-19T16:48:37.528Z,66.20
2018-07-19T16:51:08.767Z,66.50
2018-07-19T16:53:39.936Z,67.20
2018-07-19T16:56:11.269Z,68.20
2018-07-19T16:58:42.477Z,68.20
2018-07-19T17:01:13.840Z,68.00
2018-07-19T17:03:45.036Z,66.70
2018-07-19T17:06:16.048Z,66.10
2018-07-19T17:08:47.427Z,65.80
2018-07-19T17:11:18.611Z,65.80
2018-07-19T17:13:49.859Z,66.90
2018-07-19T17:16:21.967Z,67.40
2018-07-19T17:18:53.017Z,67.10
2018-07-19T17:21:24.356Z,65.80
2018-07-19T17:23:55.366Z,64.40
2018-07-19T17:26:26.557Z,64.70
2018-07-19T17:28:57.657Z,66.60
2018-07-19T17:31:29.103Z,66.30
2018-07-19T17:34:00.442Z,67.00
2018-07-19T17:36:31.708Z,65.20
2018-07-19T17:39:02.735Z,65.30
2018-07-19T17:41:34.075Z,64.30
2018-07-19T17:44:05.639Z,63.10
2018-07-19T17:46:36.813Z,62.50
2018-07-19T17:49:08.129Z,63.00
2018-07-19T17:51:39.543Z,64.80
2018-07-19T17:54:11.330Z,65.00
2018-07-19T17:56:42.722Z,65.00
2018-07-19T17:59:14.037Z,66.80
2018-07-19T18:01:45.926Z,67.20
2018-07-19T18:04:17.181Z,67.70
2018-07-19T18:06:48.215Z,67.80
2018-07-19T18:09:19.600Z,69.10
2018-07-19T18:11:51.064Z,67.80
2018-07-19T18:14:22.367Z,67.20
2018-07-19T18:16:53.614Z,68.60
2018-07-19T18:19:24.974Z,70.40
2018-07-19T18:21:56.650Z,70.40
2018-07-19T18:24:27.703Z,72.40
2018-07-19T18:26:58.386Z,72.30
2018-07-19T18:29:28.996Z,73.50
2018-07-19T18:31:59.598Z,76.10
2018-07-19T18:34:30.215Z,76.60
2018-07-19T18:37:00.912Z,80.50
2018-07-19T18:39:31.555Z,78.30
2018-07-19T18:42:02.193Z,78.60
2018-07-19T18:44:32.843Z,79.10
2018-07-19T18:47:03.516Z,79.70
2018-07-19T18:49:34.180Z,79.40
2018-07-19T18:52:04.847Z,79.50
2018-07-19T18:54:35.514Z,79.30
2018-07-19T18:57:06.222Z,79.70
2018-07-19T18:59:36.854Z,81.80
2018-07-19T19:02:07.759Z,79.90
2018-07-19T19:04:38.394Z,80.90
2018-07-19T19:07:09.291Z,83.10
2018-07-19T19:09:39.928Z,82.40
2018-07-19T19:12:11.127Z,83.90
2018-07-19T19:14:41.743Z,84.10
2018-07-19T19:17:13.117Z,85.20
2018-07-19T19:19:43.724Z,88.10
2018-07-19T19:22:14.352Z,89.70
2018-07-19T19:24:44.963Z,90.50
2018-07-19T19:27:15.571Z,90.80
2018-07-19T19:29:46.155Z,91.50
2018-07-19T19:32:16.776Z,91.90
2018-07-19T19:34:47.422Z,92.50
2018-07-19T19:39:48.092Z,93.90
2018-07-19T19:42:18.766Z,93.50
2018-07-19T19:44:49.395Z,93.70
2018-07-19T19:47:20.135Z,94.30
2018-07-19T19:49:50.765Z,94.50
2018-07-19T19:52:21.387Z,95.40
2018-07-19T19:54:52.028Z,96.40
2018-07-19T19:57:22.700Z,96.70
2018-07-19T19:59:53.328Z,96.70
2018-07-19T20:02:23.985Z,96.70
2018-07-19T20:04:54.617Z,97.50
2018-07-19T20:07:25.257Z,97.30
2018-07-19T20:12:25.984Z,99.20
2018-07-19T20:14:56.742Z,99.20
2018-07-19T20:17:27.435Z,99.70
2018-07-19T20:19:58.115Z,99.90
2018-07-19T20:22:28.752Z,99.90
2018-07-19T20:24:59.387Z,99.90
2018-07-19T20:27:30.016Z,99.90
2018-07-19T20:30:00.694Z,99.90
2018-07-19T20:32:31.406Z,99.90
2018-07-19T20:35:02.074Z,99.90
2018-07-19T20:40:02.854Z,99.90
2018-07-19T20:42:33.580Z,99.90
2018-07-19T20:45:04.354Z,99.90
2018-07-19T20:47:35.140Z,99.90
2018-07-19T20:50:05.949Z,99.90
2018-07-19T20:52:36.625Z,99.90
2018-07-19T20:55:07.912Z,99.90
2018-07-19T20:57:39.123Z,99.90
2018-07-19T21:00:09.795Z,99.90
2018-07-19T21:02:40.507Z,99.90
2018-07-19T21:05:11.159Z,99.90
2018-07-19T21:07:41.852Z,99.90
2018-07-19T21:10:12.530Z,99.90
2018-07-19T21:12:43.191Z,99.90
2018-07-19T21:15:14.818Z,99.90
2018-07-19T21:17:45.440Z,99.90
2018-07-19T21:20:16.143Z,99.90
2018-07-19T21:22:46.787Z,99.90
2018-07-19T21:25:17.431Z,99.90
2018-07-19T21:27:48.047Z,99.90
2018-07-19T21:30:18.806Z,99.90
2018-07-19T21:32:49.558Z,99.90
2018-07-19T21:35:20.189Z,99.90
2018-07-19T21:37:50.874Z,99.90
2018-07-19T21:40:21.532Z,99.90
2018-07-19T21:42:52.160Z,99.90
2018-07-19T21:45:22.843Z,99.90
2018-07-19T21:47:53.464Z,99.90
2018-07-19T21:50:24.101Z,99.90
2018-07-19T21:52:54.725Z,99.90
2018-07-19T21:55:25.767Z,99.90
2018-07-19T21:57:56.688Z,99.90
2018-07-19T22:00:30.245Z,99.90
2018-07-19T22:03:02.616Z,99.90
2018-07-19T22:05:33.244Z,99.90
2018-07-19T22:08:04.471Z,99.90
2018-07-19T22:10:35.117Z,99.90
2018-07-19T22:13:05.772Z,99.90
2018-07-19T22:15:36.404Z,99.90
2018-07-19T22:18:07.251Z,99.90
2018-07-19T22:20:37.895Z,99.90
2018-07-19T22:23:08.555Z,99.90
2018-07-19T22:25:39.232Z,99.90
2018-07-19T22:28:09.864Z,99.90
2018-07-19T22:30:40.503Z,99.90
2018-07-19T22:33:11.142Z,99.90
2018-07-19T22:35:41.799Z,99.90
2018-07-19T22:38:12.600Z,99.90
2018-07-19T22:40:43.221Z,99.90
2018-07-19T22:43:13.871Z,99.90
2018-07-19T22:45:44.515Z,99.90
2018-07-19T22:48:15.159Z,99.90
2018-07-19T22:50:45.779Z,99.90
2018-07-19T22:53:16.911Z,99.90
2018-07-19T22:55:47.698Z,99.90
2018-07-19T22:58:18.318Z,99.90
2018-07-19T23:00:48.961Z,99.90
2018-07-19T23:03:19.595Z,99.90
2018-07-19T23:05:50.244Z,99.90
2018-07-19T23:08:20.900Z,99.90
2018-07-19T23:10:51.535Z,99.90
2018-07-19T23:13:22.178Z,99.90
2018-07-19T23:18:22.881Z,99.90
2018-07-19T23:20:53.551Z,99.90
2018-07-19T23:23:24.233Z,99.90
2018-07-19T23:25:54.922Z,99.90
2018-07-19T23:28:25.963Z,99.90
2018-07-19T23:30:56.747Z,99.90
2018-07-19T23:33:27.968Z,99.90
2018-07-19T23:36:03.484Z,99.90
2018-07-19T23:42:33.223Z,99.90
2018-07-19T23:45:08.882Z,99.90
2018-07-19T23:52:41.537Z,99.90
2018-07-19T23:55:12.226Z,99.90
2018-07-19T23:57:42.864Z,99.90
